Time;durP1;ratioP1;P1;durP2;ratioP2;P2;SDS_P1;SDS_P2;PMS_P1;PMS_P2;Temp;Humidity;BMP_temperature;BMP_pressure;BME280_temperature;BME280_humidity;BME280_pressure;Samples;Min_cycle;Max_cycle;Signal;HPM_P1;HPM_P2
2022/08/16 00:00:16;;;;;;;2.15;1.50;;;25.40;80.30;;;;;;5052718;28;20572;-24
2022/08/16 00:02:42;;;;;;;3.38;1.30;;;25.40;80.30;;;;;;5053181;28;20633;-24
2022/08/16 00:05:10;;;;;;;4.32;1.27;;;25.40;80.30;;;;;;5053039;28;20544;-24
2022/08/16 00:07:36;;;;;;;2.28;1.23;;;25.40;80.30;;;;;;5051797;28;20024;-24
2022/08/16 00:10:04;;;;;;;1.58;1.20;;;25.40;80.30;;;;;;5052771;28;20079;-24
2022/08/16 00:12:31;;;;;;;1.73;1.42;;;25.40;80.30;;;;;;5052872;28;20025;-24
2022/08/16 00:14:58;;;;;;;1.52;1.20;;;25.40;80.30;;;;;;5052687;28;20521;-24
2022/08/16 00:17:25;;;;;;;1.67;1.30;;;25.40;80.30;;;;;;5052996;28;20158;-24
2022/08/16 00:19:53;;;;;;;3.65;1.40;;;25.40;80.30;;;;;;5053291;28;20070;-24
2022/08/16 00:22:19;;;;;;;4.78;1.40;;;25.40;80.30;;;;;;5052038;28;20502;-24
2022/08/16 00:24:45;;;;;;;2.45;1.38;;;25.30;80.30;;;;;;5053217;28;20478;-24
2022/08/16 00:27:11;;;;;;;4.60;1.70;;;25.30;80.30;;;;;;5052140;28;20031;-24
2022/08/16 00:29:37;;;;;;;2.40;1.40;;;25.30;80.20;;;;;;5052878;28;20568;-24
2022/08/16 00:32:05;;;;;;;1.80;1.30;;;25.30;80.20;;;;;;5052844;28;20033;-24
2022/08/16 00:34:31;;;;;;;1.92;1.25;;;25.30;80.30;;;;;;5053084;28;20040;-24
2022/08/16 00:36:57;;;;;;;3.30;1.23;;;25.30;80.30;;;;;;5053047;28;20048;-24
2022/08/16 00:39:23;;;;;;;1.73;1.35;;;25.30;80.30;;;;;;5052725;28;20040;-24
2022/08/16 00:41:49;;;;;;;3.42;1.30;;;25.30;80.30;;;;;;5052690;28;20032;-24
2022/08/16 00:44:17;;;;;;;1.60;1.00;;;25.30;80.30;;;;;;5051378;28;20451;-24
2022/08/16 00:47:00;;;;;;;2.88;1.33;;;25.30;80.30;;;;;;5053529;28;20029;-25
2022/08/16 00:49:27;;;;;;;1.98;1.30;;;25.30;80.30;;;;;;5052475;28;20149;-24
2022/08/16 00:51:53;;;;;;;2.20;1.50;;;25.30;80.30;;;;;;5051436;28;20025;-24
2022/08/16 00:54:21;;;;;;;2.13;1.35;;;25.30;80.30;;;;;;5051807;28;20027;-24
2022/08/16 00:56:50;;;;;;;1.38;1.20;;;25.30;80.40;;;;;;5053198;28;20394;-24
2022/08/16 00:59:18;;;;;;;1.40;1.08;;;25.30;80.40;;;;;;5052086;28;20021;-24
2022/08/16 01:01:44;;;;;;;2.38;1.48;;;25.30;80.30;;;;;;5052540;28;20434;-24
2022/08/16 01:04:11;;;;;;;2.08;1.40;;;25.20;80.30;;;;;;5052319;28;20040;-24
2022/08/16 01:06:37;;;;;;;2.97;1.73;;;25.20;80.30;;;;;;5052264;28;20096;-24
2022/08/16 01:09:05;;;;;;;3.67;1.35;;;25.20;80.40;;;;;;5051862;28;20029;-24
2022/08/16 01:11:33;;;;;;;1.55;1.30;;;25.20;80.30;;;;;;5051777;28;20032;-24
2022/08/16 01:14:12;;;;;;;2.28;1.42;;;25.20;80.30;;;;;;5050322;28;20098;-24
2022/08/16 01:16:40;;;;;;;2.38;1.60;;;25.20;81.20;;;;;;5051888;28;20097;-25
2022/08/16 01:19:25;;;;;;;1.95;1.30;;;25.20;80.40;;;;;;5051719;28;20029;-24
2022/08/16 01:22:00;;;;;;;2.47;1.42;;;25.20;80.40;;;;;;5051825;28;20033;-24
2022/08/16 01:24:35;;;;;;;1.63;1.27;;;25.20;80.40;;;;;;5051895;28;20439;-24
2022/08/16 01:27:24;;;;;;;3.03;1.23;;;25.20;80.50;;;;;;5051838;28;20068;-24
2022/08/16 01:29:55;;;;;;;1.58;1.23;;;25.20;80.50;;;;;;5051438;28;20367;-24
2022/08/16 01:32:21;;;;;;;2.28;1.50;;;25.20;80.50;;;;;;5052049;28;20410;-24
2022/08/16 01:34:47;;;;;;;2.33;1.70;;;25.20;80.50;;;;;;5051742;28;20383;-24
2022/08/16 01:37:13;;;;;;;2.38;1.30;;;25.20;80.50;;;;;;5051790;28;20041;-24
2022/08/16 01:39:40;;;;;;;2.05;1.40;;;25.20;80.50;;;;;;5051491;28;20029;-24
2022/08/16 01:42:07;;;;;;;2.55;1.20;;;25.20;80.50;;;;;;5051474;28;20108;-24
2022/08/16 01:44:35;;;;;;;2.08;1.48;;;25.20;80.60;;;;;;5051415;28;20573;-24
2022/08/16 01:47:00;;;;;;;2.55;1.20;;;25.10;80.50;;;;;;5051850;28;20071;-24
2022/08/16 01:49:32;;;;;;;2.30;1.40;;;25.10;80.50;;;;;;5050212;28;20398;-24
2022/08/16 01:52:10;;;;;;;1.88;1.42;;;25.10;80.50;;;;;;5051688;28;20021;-24
2022/08/16 01:54:36;;;;;;;3.05;1.40;;;25.10;80.60;;;;;;5051471;28;20048;-23
2022/08/16 01:57:03;;;;;;;6.38;1.65;;;25.10;80.60;;;;;;5050174;28;20040;-24
2022/08/16 01:59:33;;;;;;;1.77;1.50;;;25.10;80.60;;;;;;5051649;28;20443;-24
2022/08/16 02:01:59;;;;;;;2.75;1.60;;;25.10;80.70;;;;;;5051600;28;20017;-23
2022/08/16 02:04:26;;;;;;;2.90;1.50;;;25.10;80.70;;;;;;5052132;28;20040;-24
2022/08/16 02:06:52;;;;;;;1.75;1.40;;;25.10;80.70;;;;;;5054184;28;20020;-24
2022/08/16 02:09:21;;;;;;;2.28;1.55;;;25.10;80.70;;;;;;5055084;28;20025;-24
2022/08/16 02:11:51;;;;;;;2.13;1.60;;;25.10;80.80;;;;;;5055392;28;20478;-24
2022/08/16 02:14:17;;;;;;;2.47;1.40;;;25.10;80.80;;;;;;5055248;28;20037;-24
2022/08/16 02:16:43;;;;;;;1.98;1.50;;;25.10;80.80;;;;;;5054014;28;20029;-24
2022/08/16 02:19:11;;;;;;;2.50;1.40;;;25.10;80.90;;;;;;5055060;28;20488;-24
2022/08/16 02:21:37;;;;;;;2.28;1.60;;;25.10;80.90;;;;;;5055084;28;20106;-24
2022/08/16 02:24:03;;;;;;;2.30;1.60;;;25.10;80.90;;;;;;5054759;28;20055;-24
2022/08/16 02:26:29;;;;;;;1.45;1.25;;;25.00;80.90;;;;;;5055166;28;20025;-24
2022/08/16 02:28:55;;;;;;;1.48;1.23;;;25.00;80.90;;;;;;5054969;28;20474;-24
2022/08/16 02:31:21;;;;;;;2.95;1.50;;;25.00;81.00;;;;;;5053697;28;20040;-24
2022/08/16 02:33:47;;;;;;;2.15;1.50;;;25.00;80.90;;;;;;5054667;28;20036;-24
2022/08/16 02:36:14;;;;;;;2.85;1.60;;;25.00;81.00;;;;;;5054923;28;20472;-24
2022/08/16 02:38:40;;;;;;;1.73;1.40;;;25.00;81.10;;;;;;5054751;28;20107;-24
2022/08/16 02:41:07;;;;;;;2.63;1.63;;;25.00;81.00;;;;;;5054787;28;20104;-24
2022/08/16 02:43:34;;;;;;;3.00;1.65;;;25.00;81.10;;;;;;5054964;28;20021;-24
2022/08/16 02:46:01;;;;;;;1.85;1.45;;;25.00;81.10;;;;;;5054796;28;20101;-24
2022/08/16 02:48:29;;;;;;;2.30;1.52;;;25.00;81.20;;;;;;5054757;28;20040;-23
2022/08/16 02:50:56;;;;;;;1.95;1.48;;;25.00;81.10;;;;;;5054526;28;20100;-23
2022/08/16 02:53:23;;;;;;;5.63;1.70;;;25.00;81.10;;;;;;5053213;28;20021;-24
2022/08/16 02:55:48;;;;;;;3.63;1.83;;;25.00;81.20;;;;;;5054671;28;20486;-23
2022/08/16 02:58:14;;;;;;;2.20;1.63;;;25.00;81.20;;;;;;5054449;28;20029;-24
2022/08/16 03:00:40;;;;;;;2.03;1.50;;;25.00;81.20;;;;;;5054444;28;20028;-24
2022/08/16 03:03:06;;;;;;;1.70;1.48;;;25.00;81.20;;;;;;5054432;28;20021;-24
2022/08/16 03:05:32;;;;;;;2.97;1.50;;;25.00;81.30;;;;;;5054335;28;20099;-24
2022/08/16 03:07:58;;;;;;;3.05;1.27;;;25.00;81.30;;;;;;5053155;28;20053;-24
2022/08/16 03:10:24;;;;;;;2.45;1.50;;;25.00;81.30;;;;;;5054360;28;20025;-23
2022/08/16 03:12:49;;;;;;;2.75;1.50;;;24.90;81.30;;;;;;5054393;28;20052;-24
2022/08/16 03:15:16;;;;;;;3.28;1.60;;;24.90;81.30;;;;;;5055524;28;20029;-23
2022/08/16 03:17:43;;;;;;;4.47;1.60;;;24.90;81.30;;;;;;5054684;28;20071;-23
2022/08/16 03:20:11;;;;;;;3.70;1.60;;;24.90;81.30;;;;;;5052388;28;20028;-24
2022/08/16 03:22:37;;;;;;;2.38;1.60;;;24.90;81.30;;;;;;5054204;28;20435;-24
2022/08/16 03:25:06;;;;;;;1.95;1.50;;;24.90;81.40;;;;;;5052758;28;20029;-24
2022/08/16 03:27:34;;;;;;;3.33;1.55;;;24.90;81.40;;;;;;5052710;28;20045;-24
2022/08/16 03:30:23;;;;;;;2.63;1.60;;;24.90;81.40;;;;;;5053715;28;20025;-24
2022/08/16 03:32:49;;;;;;;3.35;1.52;;;24.90;81.50;;;;;;5053917;28;20104;-24
2022/08/16 03:35:17;;;;;;;1.83;1.55;;;24.90;81.50;;;;;;5053886;28;20107;-24
2022/08/16 03:37:44;;;;;;;2.00;1.48;;;24.90;81.50;;;;;;5053926;28;20048;-24
2022/08/16 03:40:12;;;;;;;2.72;1.77;;;24.90;81.50;;;;;;5053674;28;20371;-24
2022/08/16 03:42:38;;;;;;;2.20;1.63;;;24.90;81.60;;;;;;5053800;28;20465;-24
2022/08/16 03:45:04;;;;;;;2.30;1.55;;;24.90;81.60;;;;;;5053661;28;20563;-24
2022/08/16 03:47:30;;;;;;;2.05;1.67;;;24.90;81.60;;;;;;5053793;28;20025;-24
2022/08/16 03:49:57;;;;;;;2.85;1.70;;;24.90;81.60;;;;;;5053723;28;20025;-24
2022/08/16 03:52:23;;;;;;;2.17;1.55;;;24.90;81.70;;;;;;5053585;28;20025;-23
2022/08/16 03:54:51;;;;;;;1.90;1.52;;;24.80;81.70;;;;;;5053462;28;20036;-24
2022/08/16 03:57:16;;;;;;;1.88;1.63;;;24.90;81.80;;;;;;5053567;28;20283;-24
2022/08/16 03:59:42;;;;;;;1.67;1.40;;;24.80;81.70;;;;;;5053245;28;20080;-25
2022/08/16 04:02:08;;;;;;;1.65;1.48;;;24.90;81.80;;;;;;5053345;28;20033;-25
2022/08/16 04:04:37;;;;;;;2.50;1.60;;;24.80;81.80;;;;;;5051890;28;20095;-25
2022/08/16 04:07:05;;;;;;;2.25;1.45;;;24.80;81.80;;;;;;5053556;28;20108;-25
2022/08/16 04:09:31;;;;;;;1.90;1.70;;;24.80;81.90;;;;;;5051825;28;20070;-25
2022/08/16 04:11:57;;;;;;;1.85;1.50;;;24.80;81.90;;;;;;5053283;28;20442;-25
2022/08/16 04:14:23;;;;;;;3.17;1.60;;;24.80;81.90;;;;;;5051687;28;20041;-25
2022/08/16 04:16:49;;;;;;;2.58;1.60;;;24.80;82.00;;;;;;5052026;28;20037;-24
2022/08/16 04:19:15;;;;;;;2.53;1.60;;;24.80;82.00;;;;;;5053049;28;20275;-25
2022/08/16 04:21:41;;;;;;;1.65;1.55;;;24.80;82.00;;;;;;5051423;28;20234;-25
2022/08/16 04:24:06;;;;;;;4.10;1.80;;;24.80;82.80;;;;;;5052516;28;20029;-25
2022/08/16 04:26:32;;;;;;;2.45;1.55;;;24.80;82.10;;;;;;5052904;28;20032;-25
2022/08/16 04:29:03;;;;;;;1.70;1.40;;;24.80;82.10;;;;;;5052396;28;20036;-25
2022/08/16 04:31:29;;;;;;;2.53;1.70;;;24.80;82.20;;;;;;5052798;28;20025;-25
2022/08/16 04:33:58;;;;;;;3.15;1.58;;;24.80;82.20;;;;;;5052665;28;20100;-25
2022/08/16 04:36:27;;;;;;;2.33;1.50;;;24.80;82.20;;;;;;5052690;28;20017;-24
2022/08/16 04:38:54;;;;;;;2.58;1.67;;;24.70;82.20;;;;;;5051302;28;20056;-24
2022/08/16 04:41:20;;;;;;;4.20;1.60;;;24.80;82.30;;;;;;5052486;28;20408;-24
2022/08/16 04:43:46;;;;;;;4.75;1.77;;;24.80;82.40;;;;;;5052592;28;20025;-24
2022/08/16 04:46:14;;;;;;;3.33;1.60;;;24.70;82.30;;;;;;5052706;28;20021;-25
2022/08/16 04:48:40;;;;;;;1.90;1.63;;;24.80;82.40;;;;;;5052527;28;20375;-25
2022/08/16 04:51:07;;;;;;;3.28;1.80;;;24.80;82.40;;;;;;5052482;28;20025;-25
2022/08/16 04:53:34;;;;;;;2.63;1.90;;;24.70;82.40;;;;;;5052180;28;20449;-24
2022/08/16 04:56:01;;;;;;;2.25;1.73;;;24.70;82.50;;;;;;5052510;28;20082;-24
2022/08/16 04:58:26;;;;;;;1.85;1.48;;;24.70;82.50;;;;;;5052416;28;20037;-24
2022/08/16 05:00:52;;;;;;;4.80;1.73;;;24.70;82.60;;;;;;5052180;28;20035;-24
2022/08/16 05:03:19;;;;;;;2.85;1.90;;;24.70;82.60;;;;;;5052387;28;20029;-24
2022/08/16 05:05:46;;;;;;;2.78;2.00;;;24.70;82.70;;;;;;5050856;28;20017;-24
2022/08/16 05:08:12;;;;;;;2.95;1.98;;;24.70;82.70;;;;;;5052056;28;20418;-24
2022/08/16 05:10:38;;;;;;;2.70;1.80;;;24.70;82.80;;;;;;5051771;28;20490;-24
2022/08/16 05:13:05;;;;;;;2.42;1.80;;;24.70;82.80;;;;;;5051874;28;20409;-24
2022/08/16 05:15:34;;;;;;;2.70;1.85;;;24.70;82.90;;;;;;5052362;28;20088;-24
2022/08/16 05:18:00;;;;;;;2.28;1.77;;;24.70;82.90;;;;;;5051834;28;20591;-24
2022/08/16 05:20:27;;;;;;;2.25;1.70;;;24.60;82.90;;;;;;5051467;28;20029;-24
2022/08/16 05:22:53;;;;;;;1.88;1.70;;;24.60;82.90;;;;;;5051705;28;20063;-24
2022/08/16 05:25:19;;;;;;;1.98;1.60;;;24.60;83.00;;;;;;5051644;28;20025;-24
2022/08/16 05:27:45;;;;;;;2.95;1.75;;;24.60;83.00;;;;;;5051684;28;20474;-24
2022/08/16 05:30:12;;;;;;;4.40;1.90;;;24.60;83.10;;;;;;5051782;28;20033;-25
2022/08/16 05:32:39;;;;;;;3.08;2.00;;;24.60;83.10;;;;;;5051928;28;20489;-24
2022/08/16 05:35:08;;;;;;;4.97;1.83;;;24.60;83.10;;;;;;5051830;28;20059;-24
2022/08/16 05:37:35;;;;;;;1.88;1.75;;;24.60;83.20;;;;;;5050295;28;20486;-24
2022/08/16 05:40:01;;;;;;;2.80;1.70;;;24.60;83.20;;;;;;5053068;28;20078;-24
2022/08/16 05:42:27;;;;;;;2.50;1.75;;;24.60;83.30;;;;;;5055723;28;20017;-24
2022/08/16 05:44:52;;;;;;;1.45;1.33;;;24.60;83.40;;;;;;5055575;28;20029;-25
2022/08/16 05:47:18;;;;;;;3.08;1.90;;;24.60;83.40;;;;;;5055645;28;20033;-24
2022/08/16 05:49:44;;;;;;;4.63;1.80;;;24.60;83.40;;;;;;5055444;28;20104;-24
2022/08/16 05:52:11;;;;;;;3.45;1.73;;;24.60;83.50;;;;;;5055285;28;20100;-24
2022/08/16 05:54:37;;;;;;;2.72;1.70;;;24.60;83.60;;;;;;5055580;28;20074;-24
2022/08/16 05:57:04;;;;;;;3.45;1.90;;;24.60;83.60;;;;;;5055425;28;20029;-24
2022/08/16 05:59:30;;;;;;;2.28;1.80;;;24.60;83.50;;;;;;5055082;28;20394;-24
2022/08/16 06:01:56;;;;;;;1.98;1.77;;;24.60;83.60;;;;;;5055310;28;20471;-24
2022/08/16 06:04:22;;;;;;;2.42;1.60;;;24.60;83.70;;;;;;5055218;28;20017;-24
2022/08/16 06:06:48;;;;;;;2.40;1.60;;;24.60;83.70;;;;;;5055016;28;20487;-24
2022/08/16 06:09:15;;;;;;;2.00;1.77;;;24.60;83.70;;;;;;5055087;28;20087;-24
2022/08/16 06:11:41;;;;;;;3.15;1.60;;;24.60;83.80;;;;;;5055121;28;20031;-24
2022/08/16 06:14:07;;;;;;;3.38;1.70;;;24.60;83.60;;;;;;5054967;28;20048;-24
2022/08/16 06:16:33;;;;;;;2.38;1.75;;;24.60;83.70;;;;;;5055060;28;20029;-25
2022/08/16 06:18:59;;;;;;;3.55;1.98;;;24.50;83.70;;;;;;5054742;28;20071;-25
2022/08/16 06:21:25;;;;;;;6.13;2.35;;;24.60;83.80;;;;;;5053369;28;20048;-25
2022/08/16 06:23:51;;;;;;;5.53;2.60;;;24.50;85.40;;;;;;5054713;28;20471;-25
2022/08/16 06:26:16;;;;;;;5.95;2.63;;;24.30;86.50;;;;;;5053560;28;20094;-25
2022/08/16 06:28:42;;;;;;;7.03;2.60;;;24.10;87.40;;;;;;5054832;28;20017;-25
2022/08/16 06:31:10;;;;;;;6.15;2.45;;;23.90;87.70;;;;;;5054829;28;20112;-24
2022/08/16 06:33:35;;;;;;;5.97;2.45;;;23.90;88.60;;;;;;5053246;28;20033;-24
2022/08/16 06:36:01;;;;;;;4.95;2.20;;;23.80;88.60;;;;;;5054513;28;20032;-25
2022/08/16 06:38:27;;;;;;;7.47;2.67;;;23.80;88.90;;;;;;5054931;28;20028;-25
2022/08/16 06:40:53;;;;;;;5.90;2.40;;;23.70;89.00;;;;;;5055304;28;20036;-25
2022/08/16 06:43:19;;;;;;;6.13;2.80;;;23.80;89.20;;;;;;5055279;28;20383;-25
2022/08/16 06:45:46;;;;;;;3.55;2.50;;;23.80;89.40;;;;;;5054698;28;20022;-25
2022/08/16 06:48:12;;;;;;;4.88;2.50;;;23.70;89.60;;;;;;5053172;28;20398;-25
2022/08/16 06:50:38;;;;;;;5.32;2.78;;;23.70;89.60;;;;;;5054232;28;20033;-25
2022/08/16 06:53:03;;;;;;;5.50;2.63;;;23.70;89.90;;;;;;5054388;28;20112;-25
2022/08/16 06:55:30;;;;;;;3.53;2.10;;;23.60;90.00;;;;;;5054301;28;20443;-24
2022/08/16 06:57:55;;;;;;;7.93;2.50;;;23.50;90.00;;;;;;5054471;28;20028;-24
2022/08/16 07:00:23;;;;;;;9.45;2.88;;;23.40;90.20;;;;;;5054033;28;20474;-24
2022/08/16 07:02:48;;;;;;;4.35;2.30;;;23.40;90.30;;;;;;5054343;28;20025;-24
2022/08/16 07:05:16;;;;;;;5.97;2.28;;;23.40;90.30;;;;;;5054040;28;20033;-24
2022/08/16 07:07:44;;;;;;;4.68;2.47;;;23.40;90.30;;;;;;5054298;28;20017;-24
2022/08/16 07:10:10;;;;;;;8.38;2.90;;;23.40;90.30;;;;;;5053972;28;20024;-24
2022/08/16 07:12:37;;;;;;;5.78;2.35;;;23.50;90.40;;;;;;5054288;28;20033;-24
2022/08/16 07:15:04;;;;;;;5.00;2.63;;;23.50;90.30;;;;;;5054037;28;20040;-25
2022/08/16 07:17:31;;;;;;;5.60;2.95;;;23.60;90.20;;;;;;5054072;28;20020;-24
2022/08/16 07:19:58;;;;;;;8.23;3.05;;;23.70;90.10;;;;;;5053569;28;20028;-24
2022/08/16 07:22:24;;;;;;;7.60;2.70;;;23.60;90.00;;;;;;5054404;28;20021;-24
2022/08/16 07:24:50;;;;;;;8.65;2.40;;;23.70;90.00;;;;;;5053795;28;20028;-24
2022/08/16 07:27:16;;;;;;;6.32;2.92;;;23.80;89.50;;;;;;5054348;28;20429;-24
2022/08/16 07:29:41;;;;;;;8.38;2.85;;;24.00;89.20;;;;;;5053518;28;20367;-24
2022/08/16 07:32:07;;;;;;;6.05;2.63;;;24.10;88.70;;;;;;5053676;28;20025;-25
2022/08/16 07:34:33;;;;;;;4.90;2.35;;;24.20;88.40;;;;;;5053741;28;20393;-25
2022/08/16 07:37:06;;;;;;;4.40;2.30;;;24.20;88.20;;;;;;5053897;28;20103;-25
2022/08/16 07:39:32;;;;;;;7.03;2.58;;;24.30;87.90;;;;;;5053771;28;20076;-25
2022/08/16 07:41:57;;;;;;;4.68;2.10;;;24.40;87.70;;;;;;5053752;28;20461;-25
2022/08/16 07:44:24;;;;;;;5.22;2.60;;;24.40;87.50;;;;;;5053715;28;20028;-25
2022/08/16 07:46:49;;;;;;;3.28;2.15;;;24.50;87.40;;;;;;5053279;28;20041;-25
2022/08/16 07:49:15;;;;;;;7.10;2.45;;;24.50;87.30;;;;;;5053795;28;20060;-25
2022/08/16 07:51:41;;;;;;;3.95;2.40;;;24.50;87.10;;;;;;5053128;28;20025;-25
2022/08/16 07:54:09;;;;;;;3.35;2.40;;;24.50;86.90;;;;;;5053335;28;20211;-25
2022/08/16 07:56:35;;;;;;;4.53;2.15;;;24.60;86.80;;;;;;5051700;28;20025;-24
2022/08/16 07:59:01;;;;;;;3.78;2.30;;;24.60;86.70;;;;;;5051781;28;20033;-24
2022/08/16 08:01:29;;;;;;;3.05;2.05;;;24.60;86.60;;;;;;5051748;28;20021;-24
2022/08/16 08:03:55;;;;;;;4.28;2.72;;;24.60;86.40;;;;;;5051234;28;20017;-24
2022/08/16 08:06:23;;;;;;;3.20;2.22;;;24.70;86.30;;;;;;5053318;28;20483;-24
2022/08/16 08:08:49;;;;;;;3.10;2.13;;;24.70;86.20;;;;;;5053036;28;20025;-24
2022/08/16 08:11:15;;;;;;;2.30;1.80;;;24.70;86.10;;;;;;5053003;28;20107;-24
2022/08/16 08:13:42;;;;;;;5.00;2.10;;;24.70;86.00;;;;;;5053121;28;20025;-24
2022/08/16 08:16:09;;;;;;;4.75;2.33;;;24.70;85.90;;;;;;5053245;28;20025;-24
2022/08/16 08:18:35;;;;;;;3.40;2.25;;;24.70;85.90;;;;;;5052614;28;20032;-24
2022/08/16 08:21:01;;;;;;;3.13;2.10;;;24.70;85.90;;;;;;5053105;28;20021;-24
2022/08/16 08:23:27;;;;;;;3.55;2.00;;;24.70;85.90;;;;;;5052982;28;20025;-23
2022/08/16 08:25:53;;;;;;;4.30;1.92;;;24.80;85.80;;;;;;5051662;28;20041;-24
2022/08/16 08:28:19;;;;;;;6.70;2.13;;;24.80;85.70;;;;;;5052747;28;20060;-24
2022/08/16 08:30:45;;;;;;;2.80;1.90;;;24.80;85.70;;;;;;5052426;28;20096;-24
2022/08/16 08:33:11;;;;;;;3.35;2.20;;;24.80;85.60;;;;;;5052932;28;20029;-24
2022/08/16 08:35:38;;;;;;;5.43;2.22;;;24.80;85.50;;;;;;5052730;28;20032;-24
2022/08/16 08:38:07;;;;;;;2.85;2.10;;;24.80;85.50;;;;;;5052473;28;20033;-24
2022/08/16 08:40:34;;;;;;;2.72;2.00;;;24.80;85.40;;;;;;5052312;28;20535;-24
2022/08/16 08:43:01;;;;;;;3.60;2.03;;;24.80;85.40;;;;;;5052333;28;20101;-24
2022/08/16 08:45:28;;;;;;;3.42;2.25;;;24.80;85.30;;;;;;5052354;28;20029;-24
2022/08/16 08:47:55;;;;;;;3.08;2.10;;;24.80;85.20;;;;;;5052416;28;20159;-24
2022/08/16 08:50:22;;;;;;;3.05;2.05;;;24.80;85.20;;;;;;5052363;28;20116;-24
2022/08/16 08:52:50;;;;;;;2.65;1.98;;;24.80;85.10;;;;;;5052391;28;20029;-24
2022/08/16 08:55:17;;;;;;;3.15;2.00;;;24.80;85.10;;;;;;5052017;28;20063;-24
2022/08/16 08:57:46;;;;;;;2.08;1.65;;;24.80;85.10;;;;;;5052465;28;20474;-24
2022/08/16 09:00:14;;;;;;;2.67;2.10;;;24.80;85.10;;;;;;5051178;28;20045;-23
2022/08/16 09:02:43;;;;;;;2.85;2.20;;;24.80;85.10;;;;;;5052124;28;20036;-23
2022/08/16 09:05:11;;;;;;;4.05;2.20;;;24.80;85.10;;;;;;5052232;28;20063;-24
2022/08/16 09:07:37;;;;;;;2.75;2.00;;;24.80;85.00;;;;;;5052267;28;20017;-24
2022/08/16 09:10:05;;;;;;;2.78;1.90;;;24.90;85.00;;;;;;5052097;28;20021;-24
2022/08/16 09:12:31;;;;;;;3.83;2.40;;;24.80;84.80;;;;;;5052019;28;20071;-24
2022/08/16 09:14:57;;;;;;;4.00;2.15;;;24.80;84.90;;;;;;5051013;28;20402;-24
2022/08/16 09:17:23;;;;;;;3.13;1.90;;;24.90;84.90;;;;;;5050925;28;20089;-24
2022/08/16 09:19:50;;;;;;;4.50;2.17;;;24.90;84.80;;;;;;5051919;28;20021;-24
2022/08/16 09:22:18;;;;;;;3.88;2.00;;;24.90;84.70;;;;;;5050683;28;20458;-24
2022/08/16 09:24:44;;;;;;;3.80;2.15;;;24.90;84.60;;;;;;5051861;28;20080;-24
2022/08/16 09:27:09;;;;;;;2.58;1.90;;;24.90;84.60;;;;;;5051800;28;20465;-24
2022/08/16 09:29:35;;;;;;;1.90;1.70;;;25.00;84.50;;;;;;5051546;28;20021;-24
2022/08/16 09:32:02;;;;;;;2.17;1.92;;;25.00;84.50;;;;;;5051805;28;20021;-24
2022/08/16 09:34:28;;;;;;;3.35;1.98;;;25.00;84.30;;;;;;5052036;28;20029;-24
2022/08/16 09:36:56;;;;;;;2.17;1.98;;;25.10;84.30;;;;;;5052319;28;20490;-24
2022/08/16 09:39:26;;;;;;;2.33;1.67;;;25.10;84.10;;;;;;5051878;28;20099;-24
2022/08/16 09:41:55;;;;;;;2.22;1.92;;;25.20;84.10;;;;;;5051873;28;20406;-24
2022/08/16 09:44:25;;;;;;;2.10;1.90;;;25.20;84.00;;;;;;5051961;28;20029;-24
2022/08/16 09:46:53;;;;;;;2.88;1.80;;;25.20;83.90;;;;;;5051903;28;20506;-24
2022/08/16 09:49:19;;;;;;;4.60;1.75;;;25.20;83.80;;;;;;5051434;28;20104;-24
2022/08/16 09:51:44;;;;;;;2.70;1.63;;;25.20;83.70;;;;;;5051559;28;20029;-24
2022/08/16 09:54:11;;;;;;;2.30;1.88;;;25.30;83.70;;;;;;5051531;28;20043;-24
2022/08/16 09:56:39;;;;;;;2.80;1.73;;;25.30;83.60;;;;;;5051494;28;20433;-24
2022/08/16 09:59:07;;;;;;;2.85;1.80;;;25.30;83.60;;;;;;5051298;28;20033;-24
2022/08/16 10:01:35;;;;;;;3.45;1.90;;;25.30;83.60;;;;;;5051599;28;20044;-24
2022/08/16 10:04:00;;;;;;;3.67;1.73;;;25.30;83.60;;;;;;5052334;28;20440;-24
2022/08/16 10:06:27;;;;;;;2.05;1.70;;;25.30;83.60;;;;;;5051490;28;20476;-24
2022/08/16 10:08:53;;;;;;;2.95;1.70;;;25.30;83.60;;;;;;5051187;28;20132;-24
2022/08/16 10:14:03;;;;;;;2.50;1.83;;;25.30;83.60;;;;;;5051775;28;20082;-24
2022/08/16 10:16:29;;;;;;;3.38;1.60;;;25.30;83.60;;;;;;5051195;28;20049;-24
2022/08/16 10:18:55;;;;;;;2.13;1.50;;;25.30;83.50;;;;;;5050932;28;20367;-24
2022/08/16 10:21:22;;;;;;;3.70;1.83;;;25.30;83.50;;;;;;5050683;28;20032;-24
2022/08/16 10:23:50;;;;;;;2.00;1.65;;;25.30;83.50;;;;;;5050588;28;20017;-24
2022/08/16 10:26:16;;;;;;;2.22;1.75;;;25.30;83.60;;;;;;5052645;28;20048;-24
2022/08/16 10:28:42;;;;;;;3.70;1.80;;;25.30;83.60;;;;;;5053135;28;20028;-24
2022/08/16 10:31:09;;;;;;;3.28;2.05;;;25.30;83.60;;;;;;5054872;28;20509;-24
2022/08/16 10:33:35;;;;;;;2.60;1.90;;;25.30;83.60;;;;;;5053659;28;20029;-24
2022/08/16 10:36:05;;;;;;;1.65;1.52;;;25.20;83.50;;;;;;5055005;28;20039;-24
2022/08/16 10:38:36;;;;;;;3.13;1.83;;;25.30;83.60;;;;;;5053287;28;20490;-24
2022/08/16 10:41:02;;;;;;;2.90;2.13;;;25.30;83.60;;;;;;5054473;28;20036;-24
2022/08/16 10:43:28;;;;;;;2.35;1.73;;;25.30;83.60;;;;;;5053364;28;20021;-24
2022/08/16 10:45:54;;;;;;;2.17;1.67;;;25.30;83.60;;;;;;5054700;28;20039;-24
2022/08/16 10:48:20;;;;;;;2.83;1.98;;;25.30;83.50;;;;;;5054647;28;20060;-24
2022/08/16 10:50:46;;;;;;;2.33;1.83;;;25.40;83.50;;;;;;5054499;28;20051;-24
2022/08/16 10:53:12;;;;;;;2.33;1.80;;;25.40;83.40;;;;;;5054399;28;20032;-24
2022/08/16 10:55:41;;;;;;;3.40;1.98;;;25.40;83.30;;;;;;5053110;28;20398;-24
2022/08/16 10:58:11;;;;;;;2.17;1.75;;;25.40;83.20;;;;;;5054503;28;20025;-24
2022/08/16 11:00:39;;;;;;;1.90;1.60;;;25.50;83.20;;;;;;5053961;28;20036;-24
2022/08/16 11:03:06;;;;;;;2.60;1.90;;;25.50;83.10;;;;;;5054221;28;20147;-24
2022/08/16 11:05:35;;;;;;;2.03;1.80;;;25.50;83.00;;;;;;5054630;28;20363;-24
2022/08/16 11:08:02;;;;;;;2.17;1.83;;;25.50;83.00;;;;;;5053027;28;20079;-24
2022/08/16 11:10:34;;;;;;;2.08;1.67;;;25.50;82.90;;;;;;5054203;28;20078;-24
2022/08/16 11:13:00;;;;;;;2.55;1.80;;;25.50;82.90;;;;;;5054323;28;20377;-24
2022/08/16 11:15:26;;;;;;;3.28;1.65;;;25.60;82.90;;;;;;5054391;28;20029;-24
2022/08/16 11:17:53;;;;;;;1.60;1.50;;;25.50;82.90;;;;;;5053898;28;20029;-24
2022/08/16 11:20:20;;;;;;;2.22;1.70;;;25.50;83.00;;;;;;5053869;28;20021;-24
2022/08/16 11:22:47;;;;;;;2.45;1.80;;;25.50;83.00;;;;;;5054304;28;20025;-24
2022/08/16 11:25:16;;;;;;;1.63;1.40;;;25.50;83.00;;;;;;5054091;28;20060;-24
2022/08/16 11:27:42;;;;;;;1.88;1.60;;;25.50;83.10;;;;;;5053897;28;20025;-24
2022/08/16 11:30:11;;;;;;;2.33;1.70;;;25.50;83.80;;;;;;5053746;28;20032;-24
2022/08/16 11:32:37;;;;;;;2.50;1.50;;;25.50;83.10;;;;;;5053778;28;20032;-24
2022/08/16 11:35:08;;;;;;;2.08;1.60;;;25.50;83.00;;;;;;5053650;28;20036;-25
2022/08/16 11:37:35;;;;;;;1.70;1.60;;;25.50;83.00;;;;;;5052794;28;20436;-24
2022/08/16 11:40:03;;;;;;;2.45;1.77;;;25.50;83.10;;;;;;5053447;28;20083;-24
2022/08/16 11:42:29;;;;;;;1.73;1.63;;;25.50;83.10;;;;;;5053730;28;20303;-24
2022/08/16 11:44:55;;;;;;;2.00;1.73;;;25.40;83.00;;;;;;5053408;28;20541;-24
2022/08/16 11:47:20;;;;;;;2.22;1.60;;;25.40;83.10;;;;;;5053433;28;20501;-24
2022/08/16 11:49:46;;;;;;;1.90;1.40;;;25.50;83.20;;;;;;5053395;28;20390;-24
2022/08/16 11:52:11;;;;;;;2.33;1.63;;;25.50;83.10;;;;;;5053580;28;20021;-25
2022/08/16 11:54:39;;;;;;;2.20;1.65;;;25.50;83.00;;;;;;5053255;28;20100;-24
2022/08/16 11:57:05;;;;;;;1.70;1.60;;;25.50;83.00;;;;;;5053257;28;20056;-24
2022/08/16 11:59:32;;;;;;;2.20;1.50;;;25.60;82.90;;;;;;5052897;28;20021;-24
2022/08/16 12:01:58;;;;;;;2.15;1.70;;;25.60;82.90;;;;;;5053187;28;20028;-24
2022/08/16 12:04:24;;;;;;;2.05;1.40;;;25.60;82.80;;;;;;5053491;28;20116;-24
2022/08/16 12:06:50;;;;;;;2.17;1.67;;;25.60;82.70;;;;;;5053279;28;20386;-24
2022/08/16 12:09:16;;;;;;;1.90;1.70;;;25.60;83.40;;;;;;5052760;28;20492;-24
2022/08/16 12:11:43;;;;;;;2.58;1.50;;;25.60;82.60;;;;;;5053148;28;20032;-24
2022/08/16 12:14:09;;;;;;;1.98;1.55;;;25.60;82.60;;;;;;5052665;28;20029;-24
2022/08/16 12:16:35;;;;;;;2.25;1.75;;;25.70;82.60;;;;;;5053116;28;20091;-24
2022/08/16 12:19:05;;;;;;;4.93;1.63;;;25.70;82.60;;;;;;5052951;28;20374;-24
2022/08/16 12:21:32;;;;;;;2.70;1.90;;;25.70;82.50;;;;;;5052824;28;20471;-24
2022/08/16 12:23:57;;;;;;;1.60;1.33;;;25.70;82.40;;;;;;5053038;28;20061;-24
2022/08/16 12:26:23;;;;;;;1.92;1.50;;;25.80;82.40;;;;;;5052914;28;20056;-24
2022/08/16 12:28:51;;;;;;;3.05;1.92;;;25.80;82.20;;;;;;5052722;28;20079;-24
2022/08/16 12:31:17;;;;;;;1.63;1.50;;;25.80;82.20;;;;;;5051227;28;20027;-24
2022/08/16 12:33:43;;;;;;;3.15;1.60;;;25.90;82.10;;;;;;5052617;28;20060;-24
2022/08/16 12:36:09;;;;;;;1.58;1.40;;;25.90;82.10;;;;;;5052757;28;20112;-24
2022/08/16 12:38:34;;;;;;;2.78;1.77;;;25.90;82.00;;;;;;5052201;28;20029;-24
2022/08/16 12:41:00;;;;;;;2.85;1.83;;;26.00;82.00;;;;;;5052312;28;20386;-24
2022/08/16 12:43:27;;;;;;;2.97;1.77;;;26.00;81.90;;;;;;5052404;28;20021;-24
2022/08/16 12:45:54;;;;;;;3.15;1.80;;;26.00;81.90;;;;;;5052687;28;20108;-23
2022/08/16 12:51:12;;;;;;;1.85;1.60;;;26.00;81.70;;;;;;5052357;28;20159;-24